Nearby METAR Reports

 

KBUF - Buffalo/Cheektow, New York, USA
Distance from station: 0 0mi, 0km
Updated: 07/03/2022 3:54pm
Few Clouds
Few Clouds
 Wind from varies
Wind: varies 6 mph , 9 km/h
Temperature: 79°F , 26°C
Dew Point: 45°F , 7°C
Humidity: 30%
Barometer: 30.12 inHg , 1020 hPa
Clouds: Few Clouds
Visibility: 10 miles , 16 km
Cloud details: Few Clouds 5500 ft
Few Clouds 18000 ft
Few Clouds 22000 ft
2022/07/03 19:54 KBUF 031954Z VRB05KT 10SM FEW055 FEW180 FEW220 26/07 A3012 RMK AO2 SLP197 T02560072
KIAG - Niagara Falls, New York, USA
Distance from station: NW 16mi, 26km
Updated: 07/03/2022 3:53pm
Clear
Clear
 Wind from calm
Wind: Calm
Temperature: 79°F , 26°C
Dew Point: 45°F , 7°C
Humidity: 30%
Barometer: 30.11 inHg , 1019.6 hPa
Clouds: Clear
Visibility: 10 miles , 16 km
2022/07/03 19:53 KIAG 031953Z 00000KT 10SM CLR 26/07 A3011 RMK AO2 SLP194 T02610072 $
 
CWPC - Port Colborne(Au, Ontario, Canada
Distance from station: W 27mi, 43km
Updated: 07/03/2022 3:00pm

 Wind from SW
Wind: SW 16 mph , 26 km/h
Temperature: 68°F , 20°C
Dew Point: 54°F , 12°C
Humidity: 60%
2022/07/03 19:00 CWPC 031900Z AUTO 23014KT 20/12 RMK AO1 SLP215 T01980117 56010
CYSN - St. Catharines A, Ontario, Canada
Distance from station: NW 29mi, 46km
Updated: 07/03/2022 3:00pm
Few Clouds
Few Clouds
 Wind from calm
Wind: Calm
Temperature: 77°F , 25°C
Dew Point: 46°F , 8°C
Humidity: 34%
Barometer: 30.11 inHg , 1019.6 hPa
Clouds: Few Clouds
Visibility: 15 miles , 24 km
Cloud details: Few Clouds 6500 ft
Few Clouds 25000 ft
2022/07/03 19:00 CYSN 031900Z 00000KT 15SM FEW065 FEW250 25/08 A3011 RMK CU1CI1 SLP198 DENSITY ALT 1400FT
 
CWWZ - Port Weller (mar, Ontario, Canada
Distance from station: NW 33mi, 53km
Updated: 07/03/2022 3:00pm

 Wind from E
Wind: E 1 mph , 2 km/h
Temperature: 75°F , 24°C
Dew Point: 48°F , 9°C
Humidity: 39%
2022/07/03 19:00 CWWZ 031900Z AUTO 08001KT 24/09 RMK AO1 SLP207 T02360091 56013
CXVN - Vineland (au8), Ontario, Canada
Distance from station: WNW 38mi, 61km
Updated: 07/03/2022 3:00pm

 Wind from E
Wind: E 6 mph , 9 km/h
Temperature: 73°F , 23°C
Dew Point: 48°F , 9°C
Humidity: 41%
2022/07/03 19:00 CXVN 031900Z AUTO 09005KT 23/09 RMK AO1 SLP196 T02340087 58014
 
KDKK - Dunkirk, New York, USA
Distance from station: SW 41mi, 66km
Updated: 07/03/2022 3:53pm
Clear
Clear
 Wind from WNW
Wind: WNW 8 mph , 13 km/h
Temperature: 77°F , 25°C
Dew Point: 36°F , 2°C
Humidity: 22%
Barometer: 30.15 inHg , 1021 hPa
Clouds: Clear
Visibility: 10 miles , 16 km
2022/07/03 19:53 KDKK 031953Z AUTO 30007KT 10SM CLR 25/02 A3015 RMK AO2 SLP205 T02500022 $
KOLE - Olean, New York, USA
Distance from station: SSE 52mi, 83km
Updated: 07/03/2022 3:55pm
Clear
Clear
 Wind from WNW
Wind: WNW 8 mph , 13 km/h
Temperature: 72°F , 22°C
Dew Point: 41°F , 5°C
Humidity: 33%
Barometer: 30.18 inHg , 1022 hPa
Clouds: Clear
Visibility: 10 miles , 16 km
2022/07/03 19:55 KOLE 031955Z AUTO 30007KT 260V330 10SM CLR 22/05 A3018 RMK AO2
 
KROC - Rochester, New York, USA
Distance from station: ENE 55mi, 88km
Updated: 07/03/2022 3:54pm
Partly cloudy
Partly cloudy
 Wind from NW
Wind: NW 10 mph , 17 km/h
Temperature: 77°F , 25°C
Dew Point: 43°F , 6°C
Humidity: 30%
Barometer: 30.11 inHg , 1019.6 hPa
Clouds: Partly cloudy
Visibility: 10 miles , 16 km
Cloud details: Few Clouds 5000 ft
Few Clouds 18000 ft
Partly cloudy 22000 ft
2022/07/03 19:54 KROC 031954Z 32009KT 10SM FEW050 FEW180 SCT220 25/06 A3011 RMK AO2 SLP198 T02500061
KDSV - Dansville, New York, USA
Distance from station: ESE 57mi, 92km
Updated: 07/03/2022 3:54pm
Clear
Clear
 Wind from WNW
Wind: WNW 9 mph , 15 km/h
Temperature: 81°F , 27°C
Dew Point: 46°F , 8°C
Humidity: 30%
Barometer: 30.11 inHg , 1019.6 hPa
Clouds: Clear
Visibility: 10 miles , 16 km
2022/07/03 19:54 KDSV 031954Z AUTO 30008KT 10SM CLR 27/08 A3011 RMK AO2 SLP202 T02670078
 
CWWB - Burlington Piers, Ontario, Canada
Distance from station: WNW 59mi, 94km
Updated: 07/03/2022 3:00pm

 Wind from E
Wind: E 14 mph , 22 km/h
Temperature: 66°F , 19°C
Dew Point: 54°F , 12°C
Humidity: 64%
2022/07/03 19:00 CWWB 031900Z AUTO 09012KT 19/12 RMK AO1 SLP194 T01890122 56019
CYTZ - Toronto Il Vor, Ontario, Canada
Distance from station: NW 59mi, 95km
Updated: 07/03/2022 3:00pm
Clear
Clear
 Wind from S
Wind: S 8 mph , 13 km/h
Temperature: 68°F , 20°C
Dew Point: 54°F , 12°C
Humidity: 60%
Barometer: 30.11 inHg , 1019.6 hPa
Clouds: Clear
Visibility: 9 miles , 14 km
2022/07/03 19:00 CYTZ 031900Z AUTO 18007KT 9SM CLR 20/12 A3011 RMK SLP198 DENSITY ALT 700FT
 
CXTO - Toronto City, Ontario, Canada
Distance from station: NW 61mi, 98km
Updated: 07/03/2022 3:00pm

 
Temperature: 75°F , 24°C
Dew Point: 48°F , 9°C
Humidity: 39%
2022/07/03 19:00 CXTO 031900Z AUTO 24/09 RMK AO1 SLP201 T02430087 56011
KJHW - Jamestown, New York, USA
Distance from station: SSW 62mi, 99km
Updated: 07/03/2022 3:56pm
Clear
Clear
 Wind from NNW
Wind: NNW 9 mph , 15 km/h
Temperature: 73°F , 23°C
Dew Point: 41°F , 5°C
Humidity: 31%
Barometer: 30.18 inHg , 1022 hPa
Clouds: Clear
Visibility: 10 miles , 16 km
2022/07/03 19:56 KJHW 031956Z AUTO 34008KT 10SM CLR 23/05 A3018 RMK AO2 SLP216 T02330050
 
CYHM - Hamilton Airport, Ontario, Canada
Distance from station: WNW 63mi, 101km
Updated: 07/03/2022 3:00pm
Few Clouds
Few Clouds
 Wind from W
Wind: W 13 mph , 20 km/h
Temperature: 79°F , 26°C
Dew Point: 46°F , 8°C
Humidity: 32%
Barometer: 30.12 inHg , 1020 hPa
Clouds: Few Clouds
Visibility: 15 miles , 24 km
Cloud details: Few Clouds 8200 ft
Few Clouds 22000 ft
2022/07/03 19:00 CYHM 031900Z 27011KT 220V320 15SM FEW082 FEW220 26/08 A3012 RMK CU1CI1 SLP198 DENSITY ALT 2100FT
CXHM - Hamilton Rbg Cs, Ontario, Canada
Distance from station: WNW 64mi, 102km
Updated: 07/03/2022 3:00pm

 Wind from WNW
Wind: WNW 7 mph , 11 km/h
Temperature: 81°F , 27°C
Dew Point: 43°F , 6°C
Humidity: 26%
2022/07/03 19:00 CXHM 031900Z AUTO 30006KT 27/06 RMK AO1 SLP190 T02730057 56017
 
CYYZ - Toronto/Pearson, Ontario, Canada
Distance from station: NW 67mi, 108km
Updated: 07/03/2022 3:00pm
Few Clouds
Few Clouds
 Wind from SE
Wind: SE 14 mph , 22 km/h
Temperature: 77°F , 25°C
Dew Point: 46°F , 8°C
Humidity: 34%
Barometer: 30.10 inHg , 1019.3 hPa
Clouds: Few Clouds
Visibility: 15 miles , 24 km
Cloud details: Few Clouds 8500 ft
Few Clouds 25000 ft
2022/07/03 19:00 CYYZ 031900Z 14012KT 15SM FEW085 FEW250 25/08 A3010 RMK CU2CI1 CI TR SLP194 DENSITY ALT 1600FT
CYOO - Oshawa, Ontario, Canada
Distance from station: N 68mi, 110km
Updated: 07/03/2022 3:00pm
Mostly cloudy
Mostly cloudy
 Wind from SSW
Wind: SSW 12 mph , 19 km/h, Gust: 20 mph , 31 km/h
Temperature: 73°F , 23°C
Dew Point: 50°F , 10°C
Humidity: 44%
Barometer: 30.10 inHg , 1019.3 hPa
Clouds: Mostly cloudy
Visibility: 9 miles , 14 km
Cloud details: Mostly cloudy 7100 ft
2022/07/03 19:00 CYOO 031900Z AUTO 20010G17KT 160V220 9SM BKN071 23/10 A3010 RMK SLP196 DENSITY ALT 1300FT
 
KELZ - Wellsville, New York, USA
Distance from station: SE 69mi, 111km
Updated: 07/03/2022 3:56pm
Clear
Clear
 Wind from W
Wind: W 13 mph , 20 km/h, Gust: 18 mph , 30 km/h
Temperature: 75°F , 24°C
Dew Point: 41°F , 5°C
Humidity: 29%
Barometer: 30.17 inHg , 1021.7 hPa
Clouds: Clear
Visibility: 10 miles , 16 km
2022/07/03 19:56 KELZ 031956Z AUTO 28011G16KT 10SM CLR 24/05 A3017 RMK AO2 SLP206 T02440050
CWNC - Cobourg (mars), Ontario, Canada
Distance from station: NNE 76mi, 122km
Updated: 07/03/2022 3:00pm

 Wind from W
Wind: W 10 mph , 17 km/h
Temperature: 66°F , 19°C
Dew Point: 59°F , 15°C
Humidity: 78%
2022/07/03 19:00 CWNC 031900Z AUTO 26009KT 19/15 RMK AO1 SLP195 T01890152 55009